This is the latest recevied weather packets stored in our database for station/object EPGD. If no packets are shown the sender has not sent any weather packets the latest 10 day(s).
| Time | Temp. | Humidity | Pressure | Rain* | Wind** | Luminosity | Snow |
|---|---|---|---|---|---|---|---|
| 1777617304 | 12.78° C | 54% | 1027 hPa | - | - | - | - |
| 1777615504 | 10° C | 61% | 1027 hPa | - | - | - | - |
| 1777613704 | 7.78° C | 70% | 1027 hPa | - | - | - | - |
| 1777611904 | 5.56° C | 75% | 1027 hPa | - | - | - | - |
| 1777610104 | 3.89° C | 80% | 1027 hPa | - | - | - | - |
| 1777608304 | 2.78° C | 86% | 1026 hPa | - | - | - | - |
| 1777606504 | 1.67° C | 86% | 1027 hPa | - | - | - | - |
| 1777604704 | 2.78° C | 80% | 1027 hPa | - | - | - | - |
| 1777602903 | 1.67° C | 86% | 1027 hPa | - | - | - | - |
| 1777601104 | 2.78° C | 80% | 1027 hPa | - | - | - | - |
| 1777599304 | 2.78° C | 74% | 1027 hPa | - | - | - | - |
| 1777597504 | 3.89° C | 75% | 1027 hPa | - | - | - | - |
| 1777595704 | 3.89° C | 75% | 1026 hPa | - | - | - | - |
| 1777593904 | 5° C | 70% | 1027 hPa | - | - | - | - |
| 1777592104 | 5.56° C | 65% | 1027 hPa | - | - | - | - |
| 1777590304 | 5.56° C | 60% | 1027 hPa | - | - | - | - |
| 1777588503 | 5.56° C | 65% | 1027 hPa | - | - | - | - |
| 1777586703 | 6.67° C | 60% | 1027 hPa | - | - | - | - |
| 1777584903 | 5.56° C | 60% | 1027 hPa | - | - | - | - |
| 1777583104 | 7.78° C | 52% | 1026 hPa | - | - | - | - |
| 1777581304 | 7.78° C | 52% | 1026 hPa | - | - | - | - |
| 1777579504 | 8.89° C | 49% | 1027 hPa | - | - | - | - |
| 1777577704 | 10° C | 49% | 1027 hPa | - | - | - | - |
| 1777575904 | 10° C | 49% | 1027 hPa | - | - | - | - |
| 1777574104 | 10.56° C | 46% | 1026 hPa | - | - | - | - |
* Rain since midnight (hover to see other rain measurements)
** Current wind speed in m/s (hover to see current wind gust speed)